Farmington ASC

2021-05-08 23:00:00

  • imperial
Date Time Air Temperature Relative Humidity Dewpoint Windchill Heat Index Wind Speed Wind Dir. Rain Solar Radiation Soil Temperature
2m 2m 3m 3m 10cm
US/Mountain F % F F F MPH deg in MJ/m^2 F
max avg avg
2021-05-07 23:20:00 59.0 15.5 12.1 59.0 59.0 5.6 6.9 5.7 150.0 156.9 0.00 0.0000000 61.6
2021-05-07 23:25:00 59.0 16.2 13.1 59.0 59.0 6.5 6.7 5.9 154.5 149.3 0.00 0.0000000 61.5
2021-05-07 23:30:00 57.6 17.4 13.5 57.6 57.6 6.0 7.1 5.7 134.7 141.3 0.00 0.0000000 61.4
2021-05-07 23:35:00 56.6 20.0 15.9 56.6 56.6 5.8 6.7 6.1 137.0 139.5 0.00 0.0000000 61.3
2021-05-07 23:40:00 55.8 20.1 15.4 55.8 55.8 5.3 6.2 5.6 139.4 141.8 0.00 0.0000000 61.3
2021-05-07 23:45:00 55.5 19.8 14.9 55.5 55.5 4.6 5.5 5.0 140.7 140.0 0.00 0.0000000 61.2
2021-05-07 23:50:00 55.5 20.3 15.4 55.5 55.5 3.7 4.9 4.2 157.3 143.5 0.00 0.0000000 61.1
2021-05-07 23:55:00 55.8 19.8 15.0 55.8 55.8 4.0 5.3 4.2 161.0 159.4 0.00 0.0000000 61.0
2021-05-08 00:00:00 56.5 18.1 13.6 56.5 56.5 4.9 5.5 4.6 179.2 170.9 0.00 0.0000000 60.9
2021-05-08 00:05:00 56.9 17.9 13.7 56.9 56.9 4.2 4.9 4.1 165.0 172.3 0.00 0.0000000 60.9
2021-05-08 00:10:00 56.3 18.7 14.2 56.3 56.3 4.2 4.9 4.3 150.7 152.9 0.00 0.0000000 60.8
2021-05-08 00:15:00 56.3 18.5 13.9 56.3 56.3 3.8 4.9 4.3 142.4 144.2 0.00 0.0000000 60.7
2021-05-08 00:20:00 56.5 17.3 12.6 56.5 56.5 3.1 4.4 3.3 123.3 135.5 0.00 0.0000000 60.6
2021-05-08 00:25:00 55.8 17.9 12.7 55.8 55.8 3.1 3.8 3.2 113.7 121.1 0.00 0.0000000 60.6
2021-05-08 00:30:00 54.3 18.8 12.7 54.3 54.3 3.3 4.0 2.9 86.5 98.4 0.00 0.0000000 60.5
2021-05-08 00:35:00 53.7 19.6 13.0 53.7 53.7 3.3 4.4 3.3 110.4 107.6 0.00 0.0000000 60.4
2021-05-08 00:40:00 55.0 19.1 13.6 55.0 55.0 5.6 5.6 4.0 150.5 140.3 0.00 0.0000000 60.3
2021-05-08 00:45:00 56.0 17.9 13.0 56.0 56.0 5.5 6.5 4.5 184.7 155.3 0.00 0.0000000 60.2
2021-05-08 00:50:00 56.0 19.2 14.5 56.0 56.0 5.1 6.7 5.4 134.3 160.3 0.00 0.0000000 60.2
2021-05-08 00:55:00 55.3 18.4 12.9 55.3 55.3 6.5 7.6 6.6 157.8 148.9 0.00 0.0000000 60.1
2021-05-08 01:00:00 55.3 19.5 14.2 55.3 55.3 5.5 7.4 6.2 150.9 154.3 0.00 0.0000000 60.0
2021-05-08 01:05:00 54.4 20.8 15.1 54.4 54.4 6.0 6.9 6.0 157.7 158.1 0.00 0.0000000 60.0
2021-05-08 01:10:00 53.2 21.7 15.0 53.2 53.2 4.9 6.2 5.1 177.9 161.6 0.00 0.0000000 59.9
2021-05-08 01:15:00 54.2 19.0 12.8 54.2 54.2 4.7 5.8 5.1 199.9 192.3 0.00 0.0000000 59.8
2021-05-08 01:20:00 55.1 20.4 15.1 55.1 55.1 4.6 5.1 4.5 214.7 215.3 0.00 0.0000000 59.7
2021-05-08 01:25:00 55.1 22.0 16.8 55.1 55.1 4.0 5.1 4.4 197.0 213.5 0.00 0.0000000 59.7
2021-05-08 01:30:00 54.4 21.6 15.9 54.4 54.4 4.4 8.1 3.8 187.0 198.9 0.00 0.0000000 59.6
2021-05-08 01:35:00 55.3 17.6 11.9 55.3 55.3 5.6 9.4 6.1 198.9 202.0 0.00 0.0000000 59.5
2021-05-08 01:40:00 56.6 16.9 12.1 56.6 56.6 4.9 8.0 5.9 228.0 205.4 0.00 0.0000000 59.5
2021-05-08 01:45:00 57.6 15.8 11.3 57.6 57.6 8.3 8.5 6.6 239.2 219.0 0.00 0.0000000 59.4
2021-05-08 01:50:00 59.9 13.5 9.6 59.9 59.9 7.1 10.3 7.8 224.9 234.9 0.00 0.0000000 59.3
2021-05-08 01:55:00 58.0 17.0 13.3 58.0 58.0 5.5 9.7 6.2 188.2 208.9 0.00 0.0000000 59.3
2021-05-08 02:00:00 54.9 19.7 14.1 54.9 54.9 4.7 5.6 5.0 168.2 174.8 0.00 0.0000000 59.2
2021-05-08 02:05:00 53.5 22.1 15.7 53.5 53.5 5.8 7.2 5.6 152.8 156.5 0.00 0.0000000 59.2
2021-05-08 02:10:00 53.4 20.2 13.5 53.4 53.4 5.3 8.3 6.8 157.6 159.7 0.00 0.0000000 59.1
2021-05-08 02:15:00 52.9 21.7 14.7 52.9 52.9 4.9 6.5 5.6 161.2 154.1 0.00 0.0000000 59.1
2021-05-08 02:20:00 51.8 23.8 15.9 51.8 51.8 6.2 7.2 6.0 144.1 142.9 0.00 0.0000000 59.0
2021-05-08 02:25:00 51.6 23.7 15.7 51.6 51.6 5.6 6.0 5.3 156.3 150.9 0.00 0.0000000 58.9
2021-05-08 02:30:00 51.5 23.9 15.8 51.5 51.5 6.0 7.2 5.8 146.9 149.3 0.00 0.0000000 58.9
2021-05-08 02:35:00 51.4 24.1 15.8 51.4 51.4 6.0 7.1 6.0 164.4 154.8 0.00 0.0000000 58.8
2021-05-08 02:40:00 51.7 24.1 16.1 51.7 51.7 6.0 6.9 5.9 148.8 162.8 0.00 0.0000000 58.7
2021-05-08 02:45:00 50.9 25.0 16.3 50.9 50.9 5.3 6.7 5.7 153.3 159.4 0.00 0.0000000 58.7
2021-05-08 02:50:00 51.5 23.0 15.0 51.5 51.5 5.6 6.9 5.5 167.6 166.9 0.00 0.0000000 58.6
2021-05-08 02:55:00 51.2 25.5 17.0 51.2 51.2 5.5 6.3 5.5 155.3 162.2 0.00 0.0000000 58.6
2021-05-08 03:00:00 51.5 23.7 15.6 51.5 51.5 5.8 8.0 6.7 170.1 168.6 0.00 0.0000000 58.5
2021-05-08 03:05:00 50.9 24.6 15.9 50.9 50.9 6.7 7.6 6.7 158.7 162.5 0.00 0.0000000 58.5
2021-05-08 03:10:00 51.4 22.9 14.6 51.4 51.4 7.1 8.3 7.4 151.7 162.5 0.00 0.0000000 58.4
2021-05-08 03:15:00 51.7 23.4 15.5 51.7 51.7 8.5 9.2 8.2 159.2 163.3 0.00 0.0000000 58.4
2021-05-08 03:20:00 52.0 23.0 15.3 52.0 52.0 9.9 9.9 8.4 179.5 167.5 0.00 0.0000000 58.3
2021-05-08 03:25:00 52.8 21.8 14.8 52.8 52.8 9.2 10.1 8.1 176.7 176.4 0.00 0.0000000 58.2
2021-05-08 03:30:00 53.3 21.1 14.4 53.3 53.3 6.5 9.2 7.3 194.2 176.0 0.00 0.0000000 58.2
2021-05-08 03:35:00 53.4 21.5 14.9 53.4 53.4 3.5 6.0 3.4 180.3 176.0 0.00 0.0000000 58.1
2021-05-08 03:40:00 53.2 24.7 18.0 53.2 53.2 2.4 3.0 2.2 184.3 179.2 0.00 0.0000000 58.1
2021-05-08 03:45:00 52.0 26.1 18.2 52.0 52.0 4.9 5.5 3.7 183.4 201.3 0.00 0.0000000 58.0
2021-05-08 03:50:00 50.6 26.0 17.0 50.6 50.6 4.0 5.3 4.1 12.7 202.2 0.00 0.0000000 58.0
2021-05-08 03:55:00 53.0 22.2 15.3 53.0 53.0 3.3 5.3 3.4 170.5 123.6 0.00 0.0000000 57.9
2021-05-08 04:00:00 53.7 21.9 15.7 53.7 53.7 5.3 5.3 3.4 157.5 170.9 0.00 0.0000000 57.8
2021-05-08 04:05:00 51.8 23.6 15.7 51.8 51.8 4.7 6.0 5.1 136.2 146.2 0.00 0.0000000 57.8
2021-05-08 04:10:00 51.4 24.1 15.9 51.4 51.4 3.1 4.9 3.9 144.7 127.1 0.00 0.0000000 57.7
2021-05-08 04:15:00 49.9 28.7 18.6 47.5 49.9 6.0 6.2 3.8 136.7 132.5 0.00 0.0000000 57.7
2021-05-08 04:20:00 50.3 26.4 17.1 50.3 50.3 3.1 7.1 5.7 121.4 132.3 0.00 0.0000000 57.6
2021-05-08 04:25:00 50.3 25.9 16.6 50.3 50.3 4.2 5.5 4.4 135.5 121.3 0.00 0.0000000 57.5
2021-05-08 04:30:00 50.7 26.1 17.1 50.7 50.7 4.9 6.3 5.4 111.6 134.9 0.00 0.0000000 57.5
2021-05-08 04:35:00 50.3 26.8 17.3 50.3 50.3 2.4 4.4 2.8 115.2 104.4 0.00 0.0000000 57.5
2021-05-08 04:40:00 49.5 28.2 17.8 47.5 49.5 5.1 5.1 3.3 139.8 118.6 0.00 0.0000000 57.4
2021-05-08 04:45:00 51.4 27.0 18.5 51.4 51.4 1.7 5.8 3.8 110.3 141.6 0.00 0.0000000 57.3
2021-05-08 04:50:00 51.4 26.7 18.3 51.4 51.4 4.6 5.1 3.3 125.8 120.7 0.00 0.0000000 57.3
2021-05-08 04:55:00 51.5 26.3 18.0 51.5 51.5 5.1 5.5 4.6 118.6 122.4 0.00 0.0000000 57.3
2021-05-08 05:00:00 51.7 26.7 18.5 51.7 51.7 2.6 6.0 4.1 116.0 122.0 0.00 0.0000000 57.2
2021-05-08 05:05:00 51.4 26.6 18.2 51.4 51.4 3.5 3.5 2.5 49.2 67.3 0.00 0.0000000 57.2
2021-05-08 05:10:00 51.1 27.3 18.5 51.1 51.1 1.5 4.0 2.5 92.9 34.6 0.00 0.0000000 57.1
2021-05-08 05:15:00 51.7 25.4 17.3 51.7 51.7 0.8 2.2 1.4 95.6 106.1 0.00 0.0000000 57.0
2021-05-08 05:20:00 50.9 27.3 18.4 50.9 50.9 0.0 1.0 0.1 6.6 93.0 0.00 0.0000000 57.0
2021-05-08 05:25:00 50.6 26.4 17.3 50.6 50.6 3.1 3.8 0.9 112.4 118.9 0.00 0.0000000 57.0
2021-05-08 05:30:00 50.9 26.5 17.6 50.9 50.9 3.7 6.2 4.4 123.7 122.4 0.00 0.0000000 56.9
2021-05-08 05:35:00 50.8 28.1 18.9 50.8 50.8 5.3 5.3 4.1 119.4 139.2 0.00 0.0000000 56.9
2021-05-08 05:40:00 52.2 26.6 18.8 52.2 52.2 4.4 6.5 5.2 145.1 144.3 0.00 0.0000000 56.8
2021-05-08 05:45:00 52.1 26.8 18.9 52.1 52.1 4.0 5.6 4.2 140.6 131.3 0.00 0.0000000 56.8
2021-05-08 05:50:00 51.6 27.2 18.8 51.6 51.6 2.6 5.6 4.1 120.5 116.5 0.00 0.0000000 56.7
2021-05-08 05:55:00 51.1 27.4 18.6 51.1 51.1 2.8 3.5 2.5 42.8 97.8 0.00 0.0000000 56.7
2021-05-08 06:00:00 50.5 28.9 19.3 50.5 50.5 2.8 3.1 2.7 33.0 48.6 0.00 0.0010000 56.6
2021-05-08 06:05:00 50.8 28.8 19.5 50.8 50.8 2.4 2.6 2.2 26.1 29.1 0.00 0.0010000 56.6
2021-05-08 06:10:00 52.0 27.2 19.2 52.0 52.0 1.3 2.8 2.0 40.7 38.1 0.00 0.0020000 56.6
2021-05-08 06:15:00 53.6 25.4 19.0 53.6 53.6 3.3 3.7 1.5 145.2 213.3 0.00 0.0040000 56.5
2021-05-08 06:20:00 51.4 25.6 17.3 51.4 51.4 2.1 4.0 2.8 145.2 131.3 0.00 0.0080000 56.4
2021-05-08 06:25:00 52.0 26.9 18.9 52.0 52.0 1.7 3.1 2.3 169.2 160.4 0.00 0.0130000 56.4
2021-05-08 06:30:00 52.4 26.3 18.8 52.4 52.4 1.2 2.4 1.3 106.5 137.3 0.00 0.0200000 56.4
2021-05-08 06:35:00 52.9 25.4 18.4 52.9 52.9 2.1 2.2 1.7 128.3 132.0 0.00 0.0280000 56.3
2021-05-08 06:40:00 53.2 25.6 18.8 53.2 53.2 1.0 2.4 1.7 125.0 132.5 0.00 0.0360000 56.3
2021-05-08 06:45:00 52.8 26.2 19.1 52.8 52.8 2.8 2.8 1.9 147.3 128.3 0.00 0.0440000 56.2
2021-05-08 06:50:00 52.2 26.4 18.7 52.2 52.2 2.2 3.1 2.6 131.9 124.4 0.00 0.0510000 56.2
2021-05-08 06:55:00 50.5 28.5 19.0 50.5 50.5 3.0 3.0 2.3 68.8 91.0 0.00 0.0560000 56.1
2021-05-08 07:00:00 50.0 28.8 18.9 50.0 50.0 2.4 3.3 2.5 72.1 75.1 0.00 0.0620000 56.1
2021-05-08 07:05:00 50.2 29.5 19.5 50.2 50.2 2.1 3.0 2.3 56.4 73.5 0.00 0.0690000 56.1
2021-05-08 07:10:00 50.3 29.5 19.6 50.3 50.3 1.7 2.4 1.7 77.7 53.7 0.00 0.0730000 56.0
2021-05-08 07:15:00 51.0 29.2 20.0 51.0 51.0 1.5 3.3 2.1 102.4 82.0 0.00 0.0760000 56.0
2021-05-08 07:20:00 51.2 30.7 21.3 51.2 51.2 1.3 3.0 1.7 116.6 98.6 0.00 0.0770000 56.0
2021-05-08 07:25:00 52.1 29.4 21.1 52.1 52.1 1.0 3.0 1.7 35.2 92.2 0.00 0.1300000 56.0
2021-05-08 07:30:00 53.2 29.8 22.3 53.2 53.2 0.0 1.5 0.6 30.8 63.3 0.00 0.1100000 55.9
2021-05-08 07:35:00 54.2 27.5 21.4 54.2 54.2 2.2 2.2 1.1 23.7 23.7 0.00 0.1350000 55.9
2021-05-08 07:40:00 55.5 28.2 23.0 55.5 55.5 1.2 2.2 1.9 8.0 13.3 0.00 0.1720000 55.9
2021-05-08 07:45:00 57.6 24.0 21.0 57.6 57.6 2.1 2.1 0.5 122.7 40.2 0.00 0.2530000 55.9
2021-05-08 07:50:00 59.4 25.9 24.4 59.4 59.4 1.3 3.1 1.3 21.4 81.9 0.00 0.2720000 55.9
2021-05-08 07:55:00 59.9 25.6 24.5 59.9 59.9 1.5 2.4 1.4 16.6 19.4 0.00 0.2890000 55.9
2021-05-08 08:00:00 61.1 21.1 20.9 61.1 61.1 3.0 3.0 0.9 139.9 64.7 0.00 0.3030000 55.9
2021-05-08 08:05:00 61.3 23.4 23.5 61.3 61.3 2.1 3.7 2.6 131.6 145.2 0.00 0.3200000 55.9
2021-05-08 08:10:00 61.6 30.1 29.9 61.6 61.6 2.8 3.5 2.8 173.5 170.5 0.00 0.3370000 55.9
2021-05-08 08:15:00 61.7 25.4 25.9 61.7 61.7 3.3 4.4 3.4 213.5 180.5 0.00 0.3510000 56.0
2021-05-08 08:20:00 61.8 22.3 22.8 61.8 61.8 3.0 4.4 3.4 163.5 187.4 0.00 0.3660000 56.0
2021-05-08 08:25:00 62.1 22.9 23.7 62.1 62.1 3.5 5.1 4.0 165.5 178.7 0.00 0.3850000 56.0
2021-05-08 08:30:00 62.6 23.3 24.5 62.6 62.6 3.1 4.6 3.3 185.8 181.9 0.00 0.4000000 56.1
2021-05-08 08:35:00 63.8 20.5 22.5 63.8 63.8 2.6 3.3 1.6 215.7 186.5 0.00 0.4170000 56.1
2021-05-08 08:40:00 64.0 23.0 25.4 64.0 64.0 0.0 3.8 1.9 339.5 258.5 0.00 0.4320000 56.2
2021-05-08 08:45:00 64.6 21.7 24.6 64.6 64.6 3.0 3.7 1.5 227.2 196.1 0.00 0.4500000 56.2
2021-05-08 08:50:00 64.4 21.4 24.0 64.4 64.4 2.4 2.8 2.0 243.6 215.3 0.00 0.4670000 56.3
2021-05-08 08:55:00 64.7 20.2 22.9 64.7 64.7 4.2 4.2 2.3 264.9 212.0 0.00 0.4910000 56.3
2021-05-08 09:00:00 64.5 20.8 23.4 64.5 64.5 2.2 4.0 2.5 218.0 261.2 0.00 0.5220000 56.4
2021-05-08 09:05:00 64.6 23.3 26.2 64.6 64.6 6.0 7.2 4.6 229.3 258.8 0.00 0.4430000 56.5
2021-05-08 09:10:00 64.0 22.1 24.5 64.0 64.0 5.3 8.8 6.4 336.5 230.3 0.00 0.5350000 56.6
2021-05-08 09:15:00 64.3 24.4 27.1 64.3 64.3 2.6 6.0 4.2 295.4 252.7 0.00 0.5410000 56.6
2021-05-08 09:20:00 64.8 23.1 26.1 64.8 64.8 2.2 7.1 3.2 271.0 245.3 0.00 0.5560000 56.7
2021-05-08 09:25:00 65.8 22.5 26.4 65.8 65.8 2.1 5.1 3.3 222.6 295.6 0.00 0.5720000 56.8
2021-05-08 09:30:00 65.7 22.6 26.4 65.7 65.7 3.5 6.7 4.5 306.7 265.1 0.00 0.5870000 56.8
2021-05-08 09:35:00 65.7 20.4 24.0 65.7 65.7 4.2 8.0 5.4 220.6 268.6 0.00 0.6010000 56.9
2021-05-08 09:40:00 66.0 19.4 23.0 66.0 66.0 6.7 8.8 5.3 283.0 293.3 0.00 0.6160000 57.0
2021-05-08 09:45:00 66.3 19.9 23.9 66.3 66.3 10.6 11.7 8.2 277.9 258.7 0.00 0.6310000 57.1
2021-05-08 09:50:00 66.9 20.1 24.5 66.9 66.9 8.5 11.2 7.8 249.4 280.2 0.00 0.6440000 57.3
2021-05-08 09:55:00 67.2 21.9 26.9 67.2 67.2 7.4 11.2 8.5 248.2 264.2 0.00 0.6600000 57.4
2021-05-08 10:00:00 67.2 21.0 25.9 67.2 67.2 9.9 13.7 10.4 255.5 261.3 0.00 0.6690000 57.5
2021-05-08 10:05:00 67.3 20.7 25.7 67.3 67.3 8.3 16.0 11.6 298.5 261.8 0.00 0.6820000 57.6
2021-05-08 10:10:00 67.4 21.8 27.1 67.4 67.4 10.1 15.1 9.9 270.6 275.9 0.00 0.6960000 57.8
2021-05-08 10:15:00 68.9 18.8 24.6 68.9 68.9 9.6 13.9 9.3 299.1 287.6 0.00 0.7090000 57.9
2021-05-08 10:20:00 67.9 19.6 24.9 67.9 67.9 6.2 13.5 8.4 299.1 285.1 0.00 0.7200000 58.1
2021-05-08 10:25:00 67.3 20.1 24.9 67.3 67.3 8.8 12.8 7.4 307.6 311.2 0.00 0.7340000 58.2
2021-05-08 10:30:00 67.8 20.0 25.2 67.8 67.8 10.8 11.9 7.4 274.2 308.3 0.00 0.7450000 58.4
2021-05-08 10:35:00 68.7 19.0 24.8 68.7 68.7 7.2 14.6 8.3 302.3 286.5 0.00 0.7550000 58.5
2021-05-08 10:40:00 68.0 20.7 26.3 68.0 68.0 4.6 9.6 6.9 276.6 296.4 0.00 0.7660000 58.7
2021-05-08 10:45:00 67.9 20.1 25.4 67.9 67.9 6.3 10.8 7.7 327.8 305.0 0.00 0.7750000 58.8
2021-05-08 10:50:00 68.4 18.9 24.4 68.4 68.4 7.8 10.1 7.0 310.7 298.1 0.00 0.7840000 59.0
2021-05-08 10:55:00 69.2 19.5 25.8 69.2 69.2 9.7 13.3 8.6 304.1 282.3 0.00 0.8250000 59.2
2021-05-08 11:00:00 69.2 19.6 25.9 69.2 69.2 8.7 11.5 8.6 258.0 305.3 0.00 0.8070000 59.4
2021-05-08 11:05:00 69.1 19.1 25.3 69.1 69.1 9.2 16.2 11.2 292.2 271.1 0.00 0.8310000 59.6
2021-05-08 11:10:00 69.4 19.6 26.1 69.4 69.4 8.1 11.2 7.7 266.8 284.6 0.00 0.8350000 59.7
2021-05-08 11:15:00 69.8 19.8 26.6 69.8 69.8 9.4 14.4 10.7 275.5 288.4 0.00 0.8620000 59.9
2021-05-08 11:20:00 68.9 19.5 25.6 68.9 68.9 11.5 13.1 9.8 259.2 280.7 0.00 0.8960000 60.1
2021-05-08 11:25:00 70.6 19.2 26.5 70.6 70.6 10.3 18.0 12.1 276.8 271.4 0.00 0.9330000 60.3
2021-05-08 11:30:00 71.5 18.3 26.2 71.5 71.5 14.0 20.6 12.7 274.0 278.4 0.00 0.9790000 60.5
2021-05-08 11:35:00 71.2 18.0 25.6 71.2 71.2 10.3 14.7 10.6 273.3 279.1 0.00 1.0380000 60.7
2021-05-08 11:40:00 70.0 19.4 26.4 70.0 70.0 8.8 12.2 8.5 310.2 312.4 0.00 0.9880000 60.9
2021-05-08 11:45:00 69.5 18.6 24.9 69.5 69.5 5.1 18.0 10.7 328.6 299.2 0.00 0.2290000 61.1
2021-05-08 11:50:00 68.1 19.7 25.2 68.1 68.1 7.4 15.5 9.4 322.6 302.4 0.00 0.2620000 61.3
2021-05-08 11:55:00 69.4 17.9 23.9 69.4 69.4 12.6 12.6 8.3 283.4 315.7 0.00 0.8470000 61.5
2021-05-08 12:00:00 69.1 19.7 25.9 69.1 69.1 7.4 12.6 9.3 265.3 274.4 0.00 0.6140000 61.6
2021-05-08 12:05:00 68.7 19.2 25.0 68.7 68.7 11.0 12.8 10.4 302.4 278.5 0.00 0.2310000 61.8
2021-05-08 12:10:00 68.7 19.4 25.3 68.7 68.7 7.6 18.1 11.4 276.3 272.1 0.00 0.2700000 61.9
2021-05-08 12:15:00 70.6 17.5 24.4 70.6 70.6 10.8 14.2 10.3 276.9 271.5 0.00 1.0840000 62.0
2021-05-08 12:20:00 70.3 18.5 25.4 70.3 70.3 9.7 15.1 10.9 279.7 283.1 0.00 0.2830000 62.1
2021-05-08 12:25:00 68.9 18.2 23.9 68.9 68.9 10.8 16.7 12.4 314.4 256.9 0.00 0.2140000 62.2
2021-05-08 12:30:00 70.6 18.2 25.2 70.6 70.6 12.6 15.8 11.3 255.9 277.3 0.00 1.0140000 62.3
2021-05-08 12:35:00 72.0 17.0 24.7 72.0 72.0 12.4 16.0 13.1 251.1 249.0 0.00 1.0900000 62.4
2021-05-08 12:40:00 72.0 16.0 23.3 72.0 72.0 11.3 14.9 11.3 271.6 254.8 0.00 0.2840000 62.5
2021-05-08 12:45:00 70.2 18.5 25.3 70.2 70.2 12.6 16.0 11.9 294.1 285.2 0.00 0.3460000 62.6
2021-05-08 12:50:00 69.4 17.8 23.8 69.4 69.4 9.7 15.5 11.3 255.8 297.0 0.00 0.2750000 62.7
2021-05-08 12:55:00 69.3 17.9 23.8 69.3 69.3 6.5 12.6 7.4 273.6 287.6 0.00 0.3300000 62.8
2021-05-08 13:00:00 71.0 15.8 22.2 71.0 71.0 12.6 16.2 10.0 277.7 277.2 0.00 1.1070000 62.9
2021-05-08 13:05:00 71.4 16.1 23.0 71.4 71.4 12.4 16.9 10.8 311.3 298.8 0.00 0.3630000 63.0
2021-05-08 13:10:00 70.3 17.7 24.4 70.3 70.3 8.7 17.1 11.2 307.0 283.3 0.00 0.3260000 63.1
2021-05-08 13:15:00 70.6 16.3 22.6 70.6 70.6 18.9 18.9 10.1 298.1 296.8 0.00 0.3230000 63.2
2021-05-08 13:20:00 68.5 19.3 25.0 68.5 68.5 13.3 20.1 16.1 311.0 308.8 0.00 0.5090000 63.3
2021-05-08 13:25:00 70.6 18.6 25.7 70.6 70.6 13.1 16.2 10.8 287.2 305.1 0.00 1.0470000 63.4
2021-05-08 13:30:00 70.5 20.5 28.1 70.5 70.5 6.3 15.5 10.0 1.0 302.3 0.00 0.8580000 63.4
2021-05-08 13:35:00 70.4 20.2 27.7 70.4 70.4 5.6 12.4 7.8 295.0 330.3 0.00 1.1590000 63.5
2021-05-08 13:40:00 72.1 15.8 23.1 72.1 72.1 19.0 19.0 11.5 296.7 303.3 0.00 0.6500000 63.6
2021-05-08 13:45:00 72.5 15.3 22.6 72.5 72.5 16.7 26.2 17.2 248.1 275.6 0.00 0.9620000 63.7
2021-05-08 13:50:00 71.7 15.7 22.7 71.7 71.7 11.9 21.7 14.6 261.4 269.9 0.00 0.9750000 63.8
2021-05-08 13:55:00 71.6 16.8 24.2 71.6 71.6 4.9 13.0 7.8 279.9 259.1 0.00 0.9770000 64.0
2021-05-08 14:00:00 72.3 15.5 22.9 72.3 72.3 11.2 14.7 9.2 301.0 283.0 0.00 1.0180000 64.1
2021-05-08 14:05:00 71.4 16.9 24.1 71.4 71.4 6.9 18.1 10.1 248.8 313.0 0.00 0.3150000 64.3
2021-05-08 14:10:00 71.7 15.2 21.9 71.7 71.7 13.7 21.4 11.8 283.0 287.7 0.00 0.2700000 64.4
2021-05-08 14:15:00 70.5 16.9 23.4 70.5 70.5 18.9 22.3 15.6 261.3 284.0 0.00 0.2270000 64.6
2021-05-08 14:20:00 69.6 20.9 27.9 69.6 69.6 12.6 24.0 15.9 217.0 237.1 0.00 0.2430000 64.7
2021-05-08 14:25:00 68.7 18.3 23.8 68.7 68.7 11.9 27.6 12.9 287.5 255.5 0.00 0.1990000 64.8
2021-05-08 14:30:00 68.4 18.8 24.3 68.4 68.4 9.2 21.9 11.7 266.6 268.2 0.00 0.1780000 64.9
2021-05-08 14:35:00 67.2 21.1 26.0 67.2 67.2 16.5 24.6 15.2 275.3 283.6 0.00 0.1660000 64.9
2021-05-08 14:40:00 66.9 20.2 24.7 66.9 66.9 8.5 18.5 11.2 237.6 269.4 0.00 0.1740000 64.9
2021-05-08 14:45:00 67.2 21.4 26.4 67.2 67.2 25.8 25.8 17.3 230.5 244.3 0.00 0.2050000 64.8
2021-05-08 14:50:00 66.5 25.4 30.0 66.5 66.5 18.9 28.9 20.4 242.9 240.7 0.00 0.3130000 64.8
2021-05-08 14:55:00 66.4 24.5 29.0 66.4 66.4 13.9 19.6 14.9 230.1 231.9 0.00 0.4370000 64.8
2021-05-08 15:00:00 68.8 20.9 27.1 68.8 68.8 16.0 18.1 13.3 252.1 256.0 0.00 0.3920000 64.7
2021-05-08 15:05:00 69.7 20.1 26.9 69.7 69.7 16.0 20.6 16.5 250.6 265.4 0.00 0.9190000 64.6
2021-05-08 15:10:00 71.9 18.3 26.5 71.9 71.9 13.9 19.4 14.9 250.1 249.2 0.00 0.4830000 64.6
2021-05-08 15:15:00 69.6 19.2 25.8 69.6 69.6 11.0 18.3 14.6 271.8 249.3 0.00 0.1840000 64.6
2021-05-08 15:20:00 68.3 20.3 26.1 68.3 68.3 13.7 19.9 14.4 283.4 250.7 0.00 0.2430000 64.5
2021-05-08 15:25:00 69.3 19.0 25.3 69.3 69.3 19.2 19.2 15.0 242.0 252.0 0.00 0.7680000 64.5
2021-05-08 15:30:00 71.6 19.3 27.5 71.6 71.6 9.7 18.3 13.8 281.3 259.7 0.00 0.8360000 64.5
2021-05-08 15:35:00 72.4 18.9 27.7 72.4 72.4 13.5 17.1 13.5 291.0 260.4 0.00 0.8420000 64.5
2021-05-08 15:40:00 72.4 18.4 27.0 72.4 72.4 8.7 17.8 12.2 246.0 258.6 0.00 0.8340000 64.5
2021-05-08 15:45:00 72.7 17.5 26.0 72.7 72.7 14.0 19.0 13.2 254.6 269.9 0.00 0.8510000 64.5
2021-05-08 15:50:00 73.4 16.1 24.7 73.4 73.4 16.7 17.4 14.3 267.1 266.7 0.00 0.7200000 64.5
2021-05-08 15:55:00 72.2 17.5 25.7 72.2 72.2 11.5 22.4 16.0 238.5 256.5 0.00 0.7570000 64.6
2021-05-08 16:00:00 71.5 17.2 24.6 71.5 71.5 9.2 14.6 11.1 264.0 252.9 0.00 0.2070000 64.6
2021-05-08 16:05:00 71.7 16.6 23.9 71.7 71.7 22.3 22.3 16.7 258.4 262.3 0.00 0.3120000 64.7
2021-05-08 16:10:00 72.3 16.1 23.7 72.3 72.3 15.1 20.8 15.4 250.7 268.7 0.00 0.8250000 64.7
2021-05-08 16:15:00 74.0 15.1 23.6 74.0 74.0 15.3 21.2 13.9 255.0 258.9 0.00 0.3780000 64.7
2021-05-08 16:20:00 71.9 16.7 24.2 71.9 71.9 13.3 23.2 18.2 269.4 268.3 0.00 0.8390000 64.7
2021-05-08 16:25:00 73.0 15.6 23.5 73.0 73.0 17.6 21.9 14.7 248.2 273.3 0.00 0.7380000 64.7
2021-05-08 16:30:00 73.9 14.6 22.7 73.9 73.9 16.0 22.1 13.9 266.7 278.3 0.00 0.6960000 64.7
2021-05-08 16:35:00 73.0 14.6 21.9 73.0 73.0 12.4 19.2 14.0 246.5 270.7 0.00 0.1240000 64.7
2021-05-08 16:40:00 71.9 14.8 21.4 71.9 71.9 7.1 15.8 11.4 298.3 283.1 0.00 0.2190000 64.7
2021-05-08 16:45:00 73.0 14.8 22.2 73.0 73.0 15.3 16.7 12.4 256.6 286.9 0.00 0.2710000 64.7
2021-05-08 16:50:00 73.0 14.3 21.5 73.0 73.0 15.5 19.2 13.3 276.5 284.9 0.00 0.2230000 64.7
2021-05-08 16:55:00 71.1 14.5 20.3 71.1 71.1 12.1 19.6 14.3 286.9 298.2 0.00 0.1310000 64.7
2021-05-08 17:00:00 71.1 14.7 20.6 71.1 71.1 10.6 17.8 12.0 281.2 300.1 0.00 0.6450000 64.7
2021-05-08 17:05:00 73.3 13.4 20.2 73.3 73.3 10.6 18.9 11.6 310.4 303.2 0.00 0.6260000 64.7
2021-05-08 17:10:00 72.6 14.1 20.9 72.6 72.6 19.6 26.4 14.8 274.8 296.6 0.00 0.1750000 64.6
2021-05-08 17:15:00 71.3 14.6 20.6 71.3 71.3 11.0 21.7 14.9 318.3 292.9 0.00 0.1880000 64.6
2021-05-08 17:20:00 72.0 14.3 20.6 72.0 72.0 19.8 23.2 13.7 244.1 279.5 0.00 0.1480000 64.6
2021-05-08 17:25:00 70.4 15.3 21.0 70.4 70.4 19.4 20.1 16.5 246.5 255.7 0.00 0.1660000 64.5
2021-05-08 17:30:00 71.5 15.8 22.6 71.5 71.5 11.2 18.3 13.6 296.7 265.4 0.00 0.5970000 64.5
2021-05-08 17:35:00 73.0 15.2 22.8 73.0 73.0 11.2 17.8 13.0 336.4 301.1 0.00 0.4440000 64.5
2021-05-08 17:40:00 72.3 15.1 22.1 72.3 72.3 10.5 16.9 12.2 311.9 303.7 0.00 0.4750000 64.4
2021-05-08 17:45:00 72.8 14.1 21.1 72.8 72.8 13.5 17.4 12.8 317.0 302.9 0.00 0.4920000 64.4
2021-05-08 17:50:00 72.8 14.6 21.7 72.8 72.8 18.5 19.2 13.5 284.9 302.7 0.00 0.2570000 64.3
2021-05-08 17:55:00 71.7 15.5 22.2 71.7 71.7 11.2 18.3 13.0 305.2 288.8 0.00 0.4140000 64.3
2021-05-08 18:00:00 72.2 14.1 20.5 72.2 72.2 12.2 14.7 12.2 284.7 284.7 0.00 0.4110000 64.3
2021-05-08 18:05:00 72.6 13.6 20.0 72.6 72.6 14.2 18.1 12.0 313.6 297.8 0.00 0.3720000 64.2
2021-05-08 18:10:00 71.4 14.9 21.1 71.4 71.4 10.6 19.6 13.9 291.1 306.9 0.00 0.3550000 64.2
2021-05-08 18:15:00 72.0 14.8 21.5 72.0 72.0 13.7 20.1 13.1 276.4 293.4 0.00 0.3260000 64.1
2021-05-08 18:20:00 71.4 14.7 20.8 71.4 71.4 11.0 21.0 13.1 308.8 298.9 0.00 0.3010000 64.1
2021-05-08 18:25:00 71.3 14.7 20.8 71.3 71.3 11.7 18.7 12.1 289.3 292.4 0.00 0.2860000 64.0
2021-05-08 18:30:00 71.4 14.0 19.7 71.4 71.4 11.0 16.0 12.6 309.5 287.2 0.00 0.2660000 64.0
2021-05-08 18:35:00 71.2 13.6 18.9 71.2 71.2 11.7 15.6 10.9 302.1 303.9 0.00 0.2540000 63.9
2021-05-08 18:40:00 70.9 13.3 18.0 70.9 70.9 15.1 18.5 13.6 318.3 300.6 0.00 0.2330000 63.9
2021-05-08 18:45:00 70.7 13.7 18.6 70.7 70.7 11.5 16.0 11.7 308.0 305.1 0.00 0.2170000 63.8
2021-05-08 18:50:00 70.5 14.9 20.4 70.5 70.5 18.5 18.5 10.8 304.1 312.1 0.00 0.2030000 63.7
2021-05-08 18:55:00 70.2 15.0 20.4 70.2 70.2 12.4 16.4 12.8 332.1 301.7 0.00 0.1840000 63.7
2021-05-08 19:00:00 69.8 15.4 20.6 69.8 69.8 8.1 17.2 11.7 307.2 296.3 0.00 0.1680000 63.6
2021-05-08 19:05:00 69.9 15.6 21.1 69.9 69.9 14.2 15.6 10.3 309.5 299.7 0.00 0.1520000 63.5
2021-05-08 19:10:00 69.2 16.1 21.3 69.2 69.2 12.6 19.6 14.0 300.1 298.2 0.00 0.1420000 63.4
2021-05-08 19:15:00 69.4 15.7 20.8 69.4 69.4 15.5 17.2 11.1 294.1 296.3 0.00 0.1260000 63.4
2021-05-08 19:20:00 69.2 15.9 20.9 69.2 69.2 13.5 16.7 11.5 316.0 299.4 0.00 0.1100000 63.3
2021-05-08 19:25:00 69.1 16.6 21.8 69.1 69.1 10.6 16.2 11.3 284.6 295.3 0.00 0.0940000 63.2
2021-05-08 19:30:00 68.8 17.0 22.2 68.8 68.8 9.0 11.9 9.2 290.6 291.5 0.00 0.0760000 63.1
2021-05-08 19:35:00 68.3 17.1 22.0 68.3 68.3 8.3 13.3 10.3 270.2 291.4 0.00 0.0600000 63.1
2021-05-08 19:40:00 68.0 17.2 21.8 68.0 68.0 11.7 15.8 7.6 282.3 298.5 0.00 0.0460000 63.0
2021-05-08 19:45:00 67.8 17.8 22.5 67.8 67.8 7.8 15.8 9.7 324.3 295.5 0.00 0.0340000 62.9
2021-05-08 19:50:00 67.3 17.7 22.0 67.3 67.3 10.6 12.8 7.7 308.2 302.0 0.00 0.0240000 62.8
2021-05-08 19:55:00 67.2 17.5 21.7 67.2 67.2 8.8 13.9 8.7 301.2 301.9 0.00 0.0160000 62.7
2021-05-08 20:00:00 66.5 18.5 22.2 66.5 66.5 6.2 10.6 7.4 308.7 298.0 0.00 0.0100000 62.7
2021-05-08 20:05:00 66.3 18.5 22.2 66.3 66.3 5.1 10.3 7.2 292.3 295.3 0.00 0.0060000 62.6
2021-05-08 20:10:00 66.0 18.9 22.4 66.0 66.0 6.9 9.2 6.7 307.9 306.2 0.00 0.0030000 62.5
2021-05-08 20:15:00 65.4 19.6 22.8 65.4 65.4 3.8 6.5 4.8 293.8 304.8 0.00 0.0020000 62.5
2021-05-08 20:20:00 64.5 20.2 22.7 64.5 64.5 4.7 5.6 3.9 300.0 302.8 0.00 0.0010000 62.4
2021-05-08 20:25:00 64.4 20.3 22.8 64.4 64.4 3.8 5.6 4.4 323.8 312.5 0.00 0.0000000 62.3
2021-05-08 20:30:00 64.3 20.9 23.4 64.3 64.3 4.2 5.8 3.9 304.1 309.3 0.00 0.0000000 62.2
2021-05-08 20:35:00 63.9 21.5 23.8 63.9 63.9 1.9 5.3 3.4 331.6 306.5 0.00 0.0000000 62.2
2021-05-08 20:40:00 63.9 21.2 23.3 63.9 63.9 2.6 6.0 3.4 320.6 297.0 0.00 0.0000000 62.1
2021-05-08 20:45:00 63.3 21.4 23.1 63.3 63.3 2.4 4.0 2.7 278.9 296.7 0.00 0.0000000 62.0
2021-05-08 20:50:00 62.7 22.2 23.5 62.7 62.7 2.4 3.3 1.7 301.2 301.6 0.00 0.0000000 61.9
2021-05-08 20:55:00 62.0 22.9 23.7 62.0 62.0 1.7 2.8 1.9 282.2 324.4 0.00 0.0000000 61.8
2021-05-08 21:00:00 61.8 23.4 24.0 61.8 61.8 1.7 1.9 1.0 341.3 314.7 0.00 0.0000000 61.7
2021-05-08 21:05:00 61.6 23.3 23.7 61.6 61.6 1.2 2.1 1.6 336.2 344.4 0.00 0.0000000 61.6
2021-05-08 21:10:00 61.6 23.9 24.3 61.6 61.6 0.0 2.1 1.3 40.1 342.1 0.00 0.0000000 61.6
2021-05-08 21:15:00 60.5 25.2 24.6 60.5 60.5 1.5 1.5 0.2 62.1 60.2 0.00 0.0000000 61.5
2021-05-08 21:20:00 59.3 25.1 23.6 59.3 59.3 1.7 2.1 1.6 81.7 66.3 0.00 0.0000000 61.4
2021-05-08 21:25:00 58.8 25.0 23.0 58.8 58.8 0.0 1.7 0.9 6.9 51.5 0.00 0.0000000 61.3
2021-05-08 21:30:00 58.8 25.5 23.5 58.8 58.8 0.0 0.0 0.0 111.1 0.0 0.00 0.0000000 61.2
2021-05-08 21:35:00 58.0 25.5 22.9 58.0 58.0 2.1 2.4 0.8 96.5 97.6 0.00 0.0000000 61.1
2021-05-08 21:40:00 57.4 26.1 22.9 57.4 57.4 1.5 2.4 1.9 110.3 92.8 0.00 0.0000000 61.0
2021-05-08 21:45:00 56.6 26.9 22.8 56.6 56.6 2.1 2.4 2.0 108.7 107.3 0.00 0.0000000 60.9
2021-05-08 21:50:00 56.3 26.2 21.9 56.3 56.3 2.1 2.6 2.1 113.4 119.3 0.00 0.0000000 60.8
2021-05-08 21:55:00 54.8 26.9 21.4 54.8 54.8 1.5 2.2 1.7 117.0 119.3 0.00 0.0000000 60.7
2021-05-08 22:00:00 55.7 28.0 23.0 55.7 55.7 1.5 2.1 1.8 138.3 142.8 0.00 0.0000000 60.7
2021-05-08 22:05:00 54.9 29.2 23.4 54.9 54.9 1.7 2.1 1.7 132.4 120.3 0.00 0.0000000 60.5
2021-05-08 22:10:00 55.0 29.2 23.5 55.0 55.0 3.0 3.3 2.5 127.4 126.0 0.00 0.0000000 60.5
2021-05-08 22:15:00 53.9 31.6 24.4 53.9 53.9 2.8 4.2 3.1 126.2 121.5 0.00 0.0000000 60.4
2021-05-08 22:20:00 52.6 30.6 22.5 52.6 52.6 3.1 4.0 2.9 81.6 95.5 0.00 0.0000000 60.3
2021-05-08 22:25:00 52.2 30.3 21.9 52.2 52.2 2.8 3.3 2.6 78.9 89.8 0.00 0.0000000 60.2
2021-05-08 22:30:00 51.4 32.6 22.9 51.4 51.4 3.1 3.8 3.0 111.4 90.2 0.00 0.0000000 60.1
2021-05-08 22:35:00 50.6 32.2 21.9 50.6 50.6 3.5 3.5 2.8 38.7 73.0 0.00 0.0000000 60.0
2021-05-08 22:40:00 51.2 32.8 23.0 51.2 51.2 2.1 4.6 3.1 114.8 58.6 0.00 0.0000000 59.9
2021-05-08 22:45:00 51.5 34.7 24.5 51.5 51.5 1.9 2.1 1.5 49.0 51.8 0.00 0.0000000 59.8
2021-05-08 22:50:00 52.4 34.3 25.1 52.4 52.4 1.2 1.7 0.9 103.2 86.8 0.00 0.0000000 59.7
2021-05-08 22:55:00 53.2 32.5 24.5 53.2 53.2 2.1 3.3 1.9 112.2 101.4 0.00 0.0000000 59.6
2021-05-08 23:00:00 53.6 32.5 24.8 53.6 53.6 1.5 2.6 1.2 100.7 83.4 0.00 0.0000000 59.6

Data is courtesy of the NM Climate Center. DO NOT USE IN LEGAL PROCEEDINGS.